Angle Inlet, Minnesota
Current Conditions -  °F | °C
As of 8:34 PM on Saturday 25 Oct 2014 (Local Time) from KFGN Reporting Station
Clear Clear  
Wind Chill: 42°   Ceiling: Unl
Heat Index: 46°   Visibility: 10mi
Dew Point: 30°   Wind: 8mph
Humidity: 53%   Direction: 260°W
Pressure: 29.94"   Gusts: NA
Location:  49.35°N, 95.08°W
Report Text: KFGN 260134Z AUTO 26007KT 10SM CLR 08/M01 A2994 RMK AO2
Loading
Personal Weather Stations






























Interactive Weather Map New forecast layout! Learn more

10-Day Weather Forecast

Advertisements
Track Severe Weather on mobile